CSAV Rahue — A8MH2 — position and weather

sailwx.info

Track history (hours):
 
Tides and Currents Weather Stations Pressure Air Temp Water Temp Dewpoint Dewpoint Depression Visibility Wind Speed Wind Dir Waves Ship Positions

CSAV Rahue

Last reported at 2017-Oct-18 10:32 UTC. Time now 2017-Oct-18 17:04 UTC.
Position N 41°02' E 011°46'.

Length 231 m; draft 9.7 m.

Type: Ship (hazmat cat B). MMSI: 636091346.

Date/timePositionNaut miles runAvg speedWind from/ knotsBaromVisibWave heightAir tempDewpointWater temp
2017-Oct-18 10:32N 41°02' E 011°46'110.7
2017-Oct-18 10:24N 41°03' E 011°45'510.7
2017-Oct-18 09:54N 41°07' E 011°40'910.8
2017-Oct-18 09:05N 41°12' E 011°31'311.0
2017-Oct-18 08:48N 41°15' E 011°28'911.9
2017-Oct-18 08:04N 41°20' E 011°19'118.6
2017-Oct-18 08:00N 41°21' E 011°18'1020.0
2017-Oct-18 07:30N 41°28' E 011°08'1020.0
2017-Oct-18 07:00N 41°34' E 010°58'1116.8
2017-Oct-18 06:21N 41°42' E 010°47'410.1
2017-Oct-18 05:57N 41°44' E 010°43'4 9.9
2017-Oct-18 05:30N 41°47' E 010°39'5 9.8
2017-Oct-18 05:00N 41°51' E 010°34'5 9.9
2017-Oct-18 04:30N 41°54' E 010°29'11 9.8
2017-Oct-18 03:26N 42°01' E 010°18'710.0
2017-Oct-18 02:46N 42°05' E 010°12'410.0
2017-Oct-18 02:24N 42°08' E 010°08'410.2
2017-Oct-18 02:00N 42°10' E 010°04'510.2
2017-Oct-18 01:30N 42°14' E 009°59'510.1
2017-Oct-18 01:00N 42°18' E 009°55'510.6
2017-Oct-18 00:30N 42°23' E 009°52'510.6
2017-Oct-18 00:00N 42°28' E 009°50'510.3
2017-Oct-17 23:30N 42°33' E 009°48'510.3
2017-Oct-17 23:00N 42°38' E 009°45'510.2
2017-Oct-17 22:30N 42°42' E 009°43'510.1
2017-Oct-17 22:00N 42°47' E 009°41'510.4
2017-Oct-17 21:30N 42°52' E 009°39'510.3
2017-Oct-17 21:00N 42°57' E 009°37'510.1
2017-Oct-17 20:30N 43°02' E 009°35'5 9.9
2017-Oct-17 20:00N 43°07' E 009°33'4 8.9
2017-Oct-17 19:30N 43°10' E 009°30'510.3
2017-Oct-17 19:00N 43°10' E 009°23'510.3
2017-Oct-17 18:30N 43°09' E 009°16'510.3
2017-Oct-17 18:00N 43°08' E 009°08'510.3
2017-Oct-17 17:30N 43°08' E 009°01'510.3
2017-Oct-17 17:00N 43°07' E 008°54'510.3
2017-Oct-17 16:30N 43°06' E 008°48'510.2
2017-Oct-17 16:00N 43°06' E 008°41'510.4
2017-Oct-17 15:30N 43°05' E 008°34'510.4
2017-Oct-17 15:00N 43°04' E 008°26'510.2
2017-Oct-17 14:30N 43°03' E 008°20'510.2
2017-Oct-17 14:00N 43°03' E 008°13'5 9.3
2017-Oct-17 13:30N 43°02' E 008°06'5 9.7
2017-Oct-17 13:00N 43°01' E 007°60'510.4
2017-Oct-17 12:30N 43°01' E 007°53'510.3
2017-Oct-17 12:00N 43°00' E 007°46'510.2
2017-Oct-17 11:30N 42°60' E 007°39'510.2
2017-Oct-17 11:00N 42°59' E 007°32'610.4
2017-Oct-17 10:26N 42°59' E 007°24'410.4
2017-Oct-17 10:00N 42°58' E 007°18'510.3
2017-Oct-17 09:30N 42°57' E 007°11'510.2
2017-Oct-17 09:00N 42°56' E 007°04'510.2
2017-Oct-17 08:30N 42°55' E 006°57'510.0
2017-Oct-17 08:00N 42°54' E 006°50'5 9.7
2017-Oct-17 07:30N 42°54' E 006°44'5 9.6
2017-Oct-17 07:01N 42°53' E 006°37'5 9.5
2017-Oct-17 06:30N 42°53' E 006°31'5 9.3
2017-Oct-17 05:58N 42°52' E 006°24'4 9.3
2017-Oct-17 05:30N 42°52' E 006°18'5 9.3
2017-Oct-17 05:00N 42°51' E 006°12'5 9.3
2017-Oct-17 04:31N 42°51' E 006°06'5 9.4
2017-Oct-17 04:00N 42°50' E 005°59'5 9.3
2017-Oct-17 03:30N 42°52' E 005°54'5 9.3
2017-Oct-17 03:01N 42°54' E 005°48'5 9.4
2017-Oct-17 02:30N 42°56' E 005°42'5 9.5
2017-Oct-17 01:59N 42°58' E 005°36'5 9.4
2017-Oct-17 01:30N 43°00' E 005°31'612.1
2017-Oct-17 00:59N 43°03' E 005°23'817.5
2017-Oct-17 00:31N 43°07' E 005°13'917.9
2017-Oct-17 00:00N 43°11' E 005°02'917.4
2017-Oct-16 23:31N 43°20' E 004°59'510.0
2017-Oct-16 23:01N 43°24' E 004°55'3 6.8
2017-Oct-16 22:30N 43°25' E 004°50'0 0.1
2017-Oct-16 21:59N 43°25' E 004°50'0 0.0
2017-Oct-16 21:29N 43°25' E 004°50'0 0.1
2017-Oct-16 20:59N 43°25' E 004°50'0 0.1
2017-Oct-16 20:30N 43°25' E 004°50'0 0.0
2017-Oct-16 20:00N 43°25' E 004°50'0 0.0
2017-Oct-16 19:30N 43°25' E 004°50'0 0.0
2017-Oct-16 19:00N 43°25' E 004°50'0 0.0
2017-Oct-16 18:30N 43°25' E 004°50'0 0.0
2017-Oct-16 17:59N 43°25' E 004°50'0 0.0
2017-Oct-16 17:18N 43°25' E 004°50'0 0.0
2017-Oct-16 17:00N 43°25' E 004°50'0 0.0
2017-Oct-16 16:30N 43°25' E 004°50'0 0.0
2017-Oct-16 16:00N 43°25' E 004°50'0 0.0
2017-Oct-16 15:29N 43°25' E 004°50'0 0.0
2017-Oct-16 14:59N 43°25' E 004°50'0 0.0
2017-Oct-16 14:30N 43°25' E 004°50'0 0.0
2017-Oct-16 13:30N 43°25' E 004°50'0 0.0
2017-Oct-16 13:00N 43°25' E 004°50'0 0.0
2017-Oct-16 12:30N 43°25' E 004°50'0 0.0
2017-Oct-16 12:00N 43°25' E 004°50'0 0.0
2017-Oct-16 11:30N 43°25' E 004°50'0 0.0
2017-Oct-16 11:00N 43°25' E 004°50'0 0.0
2017-Oct-16 10:29N 43°25' E 004°50'1 1.5
2017-Oct-16 10:00N 43°25' E 004°51'611.5
2017-Oct-16 09:30N 43°22' E 004°58'710.7
2017-Oct-16 08:49N 43°15' E 005°01'413.5
2017-Oct-16 08:29N 43°10' E 005°02'612.2
2017-Oct-16 08:00N 43°06' E 004°56'1 1.5
2017-Oct-16 07:31N 43°06' E 004°57'0 0.8
2017-Oct-16 07:01N 43°06' E 004°57'5 7.8
2017-Oct-16 06:24N 43°09' E 005°02'1 1.3
2017-Oct-16 06:00N 43°09' E 005°01'3 6.3
2017-Oct-16 05:30N 43°08' E 004°58'5 9.6
2017-Oct-16 04:59N 43°04' E 004°53'7 9.9
2017-Oct-16 04:19N 42°59' E 004°47'4 9.9
2017-Oct-16 03:52N 42°56' E 004°43'4 9.8
2017-Oct-16 03:30N 42°53' E 004°40'510.0
2017-Oct-16 03:00N 42°49' E 004°35'710.0
2017-Oct-16 02:19N 42°44' E 004°29'410.0
2017-Oct-16 01:52N 42°41' E 004°25'4 9.6
2017-Oct-16 01:29N 42°38' E 004°22'15 6.6
2017-Oct-15 23:17N 42°26' E 004°10'7 6.7
2017-Oct-15 22:16N 42°21' E 004°04'5 6.6
2017-Oct-15 21:35N 42°18' E 003°60'1 6.5
2017-Oct-15 21:25N 42°17' E 003°59'8 6.6
2017-Oct-15 20:09N 42°11' E 003°51'4 6.6
2017-Oct-15 19:28N 42°08' E 003°47'4 6.6
2017-Oct-15 18:55N 42°05' E 003°44'3 6.6
2017-Oct-15 18:30N 42°03' E 003°42'82 9.3
2017-Oct-15 09:44N 41°18' E 002°10'6 0.2
2017-Oct-14 10:40N 41°12' E 002°10'5 2.5
2017-Oct-14 08:39N 41°09' E 002°06'1 6.4
2017-Oct-14 08:30N 41°08' E 002°05'3 6.5
2017-Oct-14 08:00N 41°05' E 002°03'3 6.6
2017-Oct-14 07:30N 41°02' E 002°00'5 9.6
2017-Oct-14 06:58N 40°58' E 001°56'  
2017-Oct-09 21:11N 37°01' E 013°34'315.5
2017-Oct-09 21:00N 37°00' E 013°38'815.4
2017-Oct-09 20:30N 36°57' E 013°46'714.8
2017-Oct-09 20:00N 36°54' E 013°55'714.1
2017-Oct-09 19:30N 36°52' E 014°03'714.1
2017-Oct-09 19:00N 36°49' E 014°11'714.7
2017-Oct-09 18:30N 36°46' E 014°20'815.2
2017-Oct-09 18:00N 36°44' E 014°29'815.6
2017-Oct-09 17:30N 36°40' E 014°38'  
Track history (hours):
 
Tides and Currents Weather Stations Pressure Air Temp Water Temp Dewpoint Dewpoint Depression Visibility Wind Speed Wind Dir Waves Ship Positions

CSAV Rahue

Last reported at 2017-Oct-18 10:32 UTC. Time now 2017-Oct-18 17:04 UTC.
Position N 41°02' E 011°46'.

Length 231 m; draft 9.7 m.

Type: Ship (hazmat cat B). MMSI: 636091346.

Date/timePositionNaut miles runAvg speedWind from/ knotsBaromVisibWave heightAir tempDewpointWater temp
2017-Oct-18 10:32N 41°02' E 011°46'110.7
2017-Oct-18 10:24N 41°03' E 011°45'510.7
2017-Oct-18 09:54N 41°07' E 011°40'910.8
2017-Oct-18 09:05N 41°12' E 011°31'311.0
2017-Oct-18 08:48N 41°15' E 011°28'911.9
2017-Oct-18 08:04N 41°20' E 011°19'118.6
2017-Oct-18 08:00N 41°21' E 011°18'1020.0
2017-Oct-18 07:30N 41°28' E 011°08'1020.0
2017-Oct-18 07:00N 41°34' E 010°58'1116.8
2017-Oct-18 06:21N 41°42' E 010°47'410.1
2017-Oct-18 05:57N 41°44' E 010°43'4 9.9
2017-Oct-18 05:30N 41°47' E 010°39'5 9.8
2017-Oct-18 05:00N 41°51' E 010°34'5 9.9
2017-Oct-18 04:30N 41°54' E 010°29'11 9.8
2017-Oct-18 03:26N 42°01' E 010°18'710.0
2017-Oct-18 02:46N 42°05' E 010°12'410.0
2017-Oct-18 02:24N 42°08' E 010°08'410.2
2017-Oct-18 02:00N 42°10' E 010°04'510.2
2017-Oct-18 01:30N 42°14' E 009°59'510.1
2017-Oct-18 01:00N 42°18' E 009°55'510.6
2017-Oct-18 00:30N 42°23' E 009°52'510.6
2017-Oct-18 00:00N 42°28' E 009°50'510.3
2017-Oct-17 23:30N 42°33' E 009°48'510.3
2017-Oct-17 23:00N 42°38' E 009°45'510.2
2017-Oct-17 22:30N 42°42' E 009°43'510.1
2017-Oct-17 22:00N 42°47' E 009°41'510.4
2017-Oct-17 21:30N 42°52' E 009°39'510.3
2017-Oct-17 21:00N 42°57' E 009°37'510.1
2017-Oct-17 20:30N 43°02' E 009°35'5 9.9
2017-Oct-17 20:00N 43°07' E 009°33'4 8.9
2017-Oct-17 19:30N 43°10' E 009°30'510.3
2017-Oct-17 19:00N 43°10' E 009°23'510.3
2017-Oct-17 18:30N 43°09' E 009°16'510.3
2017-Oct-17 18:00N 43°08' E 009°08'510.3
2017-Oct-17 17:30N 43°08' E 009°01'510.3
2017-Oct-17 17:00N 43°07' E 008°54'510.3
2017-Oct-17 16:30N 43°06' E 008°48'510.2
2017-Oct-17 16:00N 43°06' E 008°41'510.4
2017-Oct-17 15:30N 43°05' E 008°34'510.4
2017-Oct-17 15:00N 43°04' E 008°26'510.2
2017-Oct-17 14:30N 43°03' E 008°20'510.2
2017-Oct-17 14:00N 43°03' E 008°13'5 9.3
2017-Oct-17 13:30N 43°02' E 008°06'5 9.7
2017-Oct-17 13:00N 43°01' E 007°60'510.4
2017-Oct-17 12:30N 43°01' E 007°53'510.3
2017-Oct-17 12:00N 43°00' E 007°46'510.2
2017-Oct-17 11:30N 42°60' E 007°39'510.2
2017-Oct-17 11:00N 42°59' E 007°32'610.4
2017-Oct-17 10:26N 42°59' E 007°24'410.4
2017-Oct-17 10:00N 42°58' E 007°18'510.3
2017-Oct-17 09:30N 42°57' E 007°11'510.2
2017-Oct-17 09:00N 42°56' E 007°04'510.2
2017-Oct-17 08:30N 42°55' E 006°57'510.0
2017-Oct-17 08:00N 42°54' E 006°50'5 9.7
2017-Oct-17 07:30N 42°54' E 006°44'5 9.6
2017-Oct-17 07:01N 42°53' E 006°37'5 9.5
2017-Oct-17 06:30N 42°53' E 006°31'5 9.3
2017-Oct-17 05:58N 42°52' E 006°24'4 9.3
2017-Oct-17 05:30N 42°52' E 006°18'5 9.3
2017-Oct-17 05:00N 42°51' E 006°12'5 9.3
2017-Oct-17 04:31N 42°51' E 006°06'5 9.4
2017-Oct-17 04:00N 42°50' E 005°59'5 9.3
2017-Oct-17 03:30N 42°52' E 005°54'5 9.3
2017-Oct-17 03:01N 42°54' E 005°48'5 9.4
2017-Oct-17 02:30N 42°56' E 005°42'5 9.5
2017-Oct-17 01:59N 42°58' E 005°36'5 9.4
2017-Oct-17 01:30N 43°00' E 005°31'612.1
2017-Oct-17 00:59N 43°03' E 005°23'817.5
2017-Oct-17 00:31N 43°07' E 005°13'917.9
2017-Oct-17 00:00N 43°11' E 005°02'917.4
2017-Oct-16 23:31N 43°20' E 004°59'510.0
2017-Oct-16 23:01N 43°24' E 004°55'3 6.8
2017-Oct-16 22:30N 43°25' E 004°50'0 0.1
2017-Oct-16 21:59N 43°25' E 004°50'0 0.0
2017-Oct-16 21:29N 43°25' E 004°50'0 0.1
2017-Oct-16 20:59N 43°25' E 004°50'0 0.1
2017-Oct-16 20:30N 43°25' E 004°50'0 0.0
2017-Oct-16 20:00N 43°25' E 004°50'0 0.0
2017-Oct-16 19:30N 43°25' E 004°50'0 0.0
2017-Oct-16 19:00N 43°25' E 004°50'0 0.0
2017-Oct-16 18:30N 43°25' E 004°50'0 0.0
2017-Oct-16 17:59N 43°25' E 004°50'0 0.0
2017-Oct-16 17:18N 43°25' E 004°50'0 0.0
2017-Oct-16 17:00N 43°25' E 004°50'0 0.0
2017-Oct-16 16:30N 43°25' E 004°50'0 0.0
2017-Oct-16 16:00N 43°25' E 004°50'0 0.0
2017-Oct-16 15:29N 43°25' E 004°50'0 0.0
2017-Oct-16 14:59N 43°25' E 004°50'0 0.0
2017-Oct-16 14:30N 43°25' E 004°50'0 0.0
2017-Oct-16 13:30N 43°25' E 004°50'0 0.0
2017-Oct-16 13:00N 43°25' E 004°50'0 0.0
2017-Oct-16 12:30N 43°25' E 004°50'0 0.0
2017-Oct-16 12:00N 43°25' E 004°50'0 0.0
2017-Oct-16 11:30N 43°25' E 004°50'0 0.0
2017-Oct-16 11:00N 43°25' E 004°50'0 0.0
2017-Oct-16 10:29N 43°25' E 004°50'1 1.5
2017-Oct-16 10:00N 43°25' E 004°51'611.5
2017-Oct-16 09:30N 43°22' E 004°58'710.7
2017-Oct-16 08:49N 43°15' E 005°01'413.5
2017-Oct-16 08:29N 43°10' E 005°02'612.2
2017-Oct-16 08:00N 43°06' E 004°56'1 1.5
2017-Oct-16 07:31N 43°06' E 004°57'0 0.8
2017-Oct-16 07:01N 43°06' E 004°57'5 7.8
2017-Oct-16 06:24N 43°09' E 005°02'1 1.3
2017-Oct-16 06:00N 43°09' E 005°01'3 6.3
2017-Oct-16 05:30N 43°08' E 004°58'5 9.6
2017-Oct-16 04:59N 43°04' E 004°53'7 9.9
2017-Oct-16 04:19N 42°59' E 004°47'4 9.9
2017-Oct-16 03:52N 42°56' E 004°43'4 9.8
2017-Oct-16 03:30N 42°53' E 004°40'510.0
2017-Oct-16 03:00N 42°49' E 004°35'710.0
2017-Oct-16 02:19N 42°44' E 004°29'410.0
2017-Oct-16 01:52N 42°41' E 004°25'4 9.6
2017-Oct-16 01:29N 42°38' E 004°22'15 6.6
2017-Oct-15 23:17N 42°26' E 004°10'7 6.7
2017-Oct-15 22:16N 42°21' E 004°04'5 6.6
2017-Oct-15 21:35N 42°18' E 003°60'1 6.5
2017-Oct-15 21:25N 42°17' E 003°59'8 6.6
2017-Oct-15 20:09N 42°11' E 003°51'4 6.6
2017-Oct-15 19:28N 42°08' E 003°47'4 6.6
2017-Oct-15 18:55N 42°05' E 003°44'3 6.6
2017-Oct-15 18:30N 42°03' E 003°42'82 9.3
2017-Oct-15 09:44N 41°18' E 002°10'6 0.2
2017-Oct-14 10:40N 41°12' E 002°10'5 2.5
2017-Oct-14 08:39N 41°09' E 002°06'1 6.4
2017-Oct-14 08:30N 41°08' E 002°05'3 6.5
2017-Oct-14 08:00N 41°05' E 002°03'3 6.6
2017-Oct-14 07:30N 41°02' E 002°00'5 9.6
2017-Oct-14 06:58N 40°58' E 001°56'  
2017-Oct-09 21:11N 37°01' E 013°34'315.5
2017-Oct-09 21:00N 37°00' E 013°38'815.4
2017-Oct-09 20:30N 36°57' E 013°46'714.8
2017-Oct-09 20:00N 36°54' E 013°55'714.1
2017-Oct-09 19:30N 36°52' E 014°03'714.1
2017-Oct-09 19:00N 36°49' E 014°11'714.7
2017-Oct-09 18:30N 36°46' E 014°20'815.2
2017-Oct-09 18:00N 36°44' E 014°29'815.6
2017-Oct-09 17:30N 36°40' E 014°38'  

Dump ship's entire track history